Time;durP1;ratioP1;P1;durP2;ratioP2;P2;SDS_P1;SDS_P2;PMS_P1;PMS_P2;Temp;Humidity;BMP_temperature;BMP_pressure;BME280_temperature;BME280_humidity;BME280_pressure;Samples;Min_cycle;Max_cycle;Signal;HPM_P1;HPM_P2
2022/07/21 00:00:16;;;;;;;7.93;6.60;;;;;;;22.64;79.26;99066.75;5089045;28;42756;-76
2022/07/21 00:02:44;;;;;;;7.17;6.27;;;;;;;22.54;79.72;99051.56;5091705;28;43206;-77
2022/07/21 00:05:12;;;;;;;7.17;5.40;;;;;;;22.39;80.28;99020.84;5091882;28;41978;-76
2022/07/21 00:07:39;;;;;;;7.07;6.40;;;;;;;22.37;80.73;99025.59;5091524;28;41228;-76
2022/07/21 00:10:10;;;;;;;7.70;6.53;;;;;;;22.35;80.02;99019.50;5090475;28;42011;-77
2022/07/21 00:12:38;;;;;;;7.43;5.47;;;;;;;22.34;79.66;99019.69;5074625;28;41715;-77
2022/07/21 00:15:06;;;;;;;6.57;5.43;;;;;;;22.29;79.62;98998.59;5091438;28;43966;-76
2022/07/21 00:17:34;;;;;;;6.00;5.40;;;;;;;22.33;79.59;99004.50;5074241;28;41671;-76
2022/07/21 00:20:03;;;;;;;6.70;6.10;;;;;;;22.31;79.61;98996.56;5073938;28;40624;-77
2022/07/21 00:22:30;;;;;;;7.00;5.83;;;;;;;22.34;79.42;98990.84;5090491;28;42041;-76
2022/07/21 00:24:59;;;;;;;5.67;5.17;;;;;;;22.36;79.45;98994.22;5074452;28;41192;-76
2022/07/21 00:27:28;;;;;;;5.90;5.30;;;;;;;22.15;79.14;98947.97;5074345;28;40073;-76
2022/07/21 00:29:55;;;;;;;6.50;5.80;;;;;;;22.37;78.91;98979.72;5074225;28;42105;-75
2022/07/21 00:32:23;;;;;;;6.00;5.50;;;;;;;22.36;79.30;98974.50;5074003;28;41908;-75
2022/07/21 00:34:50;;;;;;;5.87;5.27;;;;;;;22.34;78.92;98980.03;5092038;28;42456;-76
2022/07/21 00:37:18;;;;;;;6.50;5.90;;;;;;;22.30;79.35;98973.28;5092086;28;41001;-75
2022/07/21 00:39:46;;;;;;;6.30;5.70;;;;;;;22.35;79.23;98973.63;5092339;28;42467;-75
2022/07/21 00:42:22;;;;;;;6.93;6.27;;;;;;;22.32;79.93;98984.75;5090618;28;42035;-75
2022/07/21 00:44:51;;;;;;;6.13;5.57;;;;;;;22.28;79.45;98991.50;5088091;28;42340;-75
2022/07/21 00:47:21;;;;;;;6.20;5.60;;;;;;;22.26;80.20;98993.50;5074007;28;38917;-76
2022/07/21 00:49:49;;;;;;;7.77;6.67;;;;;;;22.26;81.21;99001.59;5090769;28;40305;-76
2022/07/21 00:52:17;;;;;;;8.33;7.50;;;;;;;22.27;82.05;99011.38;5090366;28;43123;-76
2022/07/21 00:54:44;;;;;;;8.00;7.20;;;;;;;22.30;81.75;99011.06;5073862;28;41064;-76
2022/07/21 00:57:13;;;;;;;7.37;6.67;;;;;;;22.29;82.63;99020.16;5090380;28;39718;-77
2022/07/21 00:59:41;;;;;;;7.73;6.67;;;;;;;22.31;82.50;99001.13;5090699;28;42010;-77
2022/07/21 01:02:11;;;;;;;8.90;6.77;;;;;;;22.32;82.24;99008.19;5090325;28;42529;-77
2022/07/21 01:04:39;;;;;;;7.13;6.43;;;;;;;22.34;82.27;99012.44;5090889;28;42151;-76
2022/07/21 01:07:07;;;;;;;7.17;6.47;;;;;;;22.32;81.79;99009.06;5072921;28;40021;-76
2022/07/21 01:09:36;;;;;;;8.53;7.63;;;;;;;22.35;82.43;99014.13;5090111;28;40679;-76
2022/07/21 01:12:04;;;;;;;9.73;8.07;;;;;;;22.34;82.74;99017.81;5092481;28;42850;-76
2022/07/21 01:14:32;;;;;;;7.83;6.97;;;;;;;22.30;81.84;99011.06;5090555;28;40883;-76
2022/07/21 01:17:01;;;;;;;8.57;7.67;;;;;;;22.37;82.02;99028.28;5073755;28;40686;-76
2022/07/21 01:19:31;;;;;;;8.80;7.93;;;;;;;22.39;82.12;99022.69;5090447;28;40747;-75
2022/07/21 01:22:01;;;;;;;8.93;7.50;;;;;;;22.35;82.60;99008.72;5090835;28;44613;-76
2022/07/21 01:24:28;;;;;;;8.47;7.60;;;;;;;22.40;82.44;99011.75;5091450;28;42184;-77
2022/07/21 01:26:56;;;;;;;8.23;7.43;;;;;;;22.29;83.66;98998.59;5073481;28;40148;-76
2022/07/21 01:29:24;;;;;;;8.67;7.70;;;;;;;22.32;82.94;99000.09;5073341;28;42576;-76
2022/07/21 01:31:53;;;;;;;8.40;7.60;;;;;;;22.34;82.57;99001.63;5091322;28;43767;-76
2022/07/21 01:34:21;;;;;;;10.57;8.20;;;;;;;22.35;82.68;99014.13;5090328;28;42248;-77
2022/07/21 01:36:48;;;;;;;10.23;9.23;;;;;;;22.32;82.19;99022.53;5091824;28;40303;-76
2022/07/21 01:42:11;;;;;;;7.70;6.80;;;;;;;22.27;82.74;99032.97;5065584;28;42827;-77
2022/07/21 01:44:39;;;;;;;10.80;7.43;;;;;;;22.19;82.33;99022.19;5091465;28;42327;-77
2022/07/21 01:47:07;;;;;;;9.40;8.50;;;;;;;22.26;82.44;99042.06;5089927;28;40883;-76
2022/07/21 01:49:34;;;;;;;9.67;8.57;;;;;;;22.25;82.92;99037.72;5091204;28;41997;-77
2022/07/21 01:52:02;;;;;;;10.87;8.13;;;;;;;22.21;82.77;99045.28;5090156;28;43667;-76
2022/07/21 01:54:31;;;;;;;9.53;8.40;;;;;;;22.20;83.74;99040.06;5090027;28;41271;-76
2022/07/21 01:56:59;;;;;;;10.90;9.37;;;;;;;22.16;83.54;99039.53;5090083;28;40699;-76
2022/07/21 01:59:26;;;;;;;9.57;8.33;;;;;;;22.18;83.26;99037.53;5089862;28;42054;-76
2022/07/21 02:01:54;;;;;;;9.97;8.97;;;;;;;22.15;83.64;99045.09;5072496;28;42120;-76
2022/07/21 02:04:22;;;;;;;8.97;8.07;;;;;;;22.13;83.49;99044.44;5089918;28;43158;-76
2022/07/21 02:06:49;;;;;;;8.77;7.97;;;;;;;22.10;82.94;99045.59;5090046;28;39214;-77
2022/07/21 02:09:17;;;;;;;7.80;7.13;;;;;;;22.10;82.60;99047.44;5091233;28;41458;-76
2022/07/21 02:11:46;;;;;;;8.70;7.90;;;;;;;22.09;82.63;99052.00;5072937;28;42958;-77
2022/07/21 02:14:13;;;;;;;10.27;9.30;;;;;;;22.09;83.09;99049.31;5090721;28;42193;-75
2022/07/21 02:16:41;;;;;;;8.87;7.97;;;;;;;22.08;82.83;99054.84;5072854;28;40813;-76
2022/07/21 02:19:09;;;;;;;8.80;7.93;;;;;;;22.08;82.62;99044.91;5091012;28;41523;-76
2022/07/21 02:21:37;;;;;;;11.73;9.83;;;;;;;22.03;82.43;99024.81;5088776;28;43494;-76
2022/07/21 02:24:07;;;;;;;8.70;7.80;;;;;;;22.10;82.86;99031.28;5089518;28;41276;-76
2022/07/21 02:26:34;;;;;;;8.30;7.57;;;;;;;22.04;82.04;99004.94;5072876;28;40197;-76
2022/07/21 02:29:03;;;;;;;8.40;7.43;;;;;;;22.14;81.42;99021.81;5072659;28;42272;-76
2022/07/21 02:31:31;;;;;;;9.07;8.23;;;;;;;22.18;81.11;99023.19;5072681;28;42967;-77
2022/07/21 02:33:59;;;;;;;7.90;7.20;;;;;;;22.20;80.50;99031.97;5074295;28;41204;-76
2022/07/21 02:36:26;;;;;;;8.83;7.93;;;;;;;22.16;80.52;99019.81;5075561;28;40331;-77
2022/07/21 02:38:54;;;;;;;8.63;7.83;;;;;;;22.23;80.46;99037.03;5094019;28;41855;-76
2022/07/21 02:41:22;;;;;;;8.67;7.73;;;;;;;22.23;80.53;99037.03;5092843;28;43102;-77
2022/07/21 02:43:50;;;;;;;8.70;7.87;;;;;;;22.21;80.02;99044.44;5092930;28;41442;-78
2022/07/21 02:46:19;;;;;;;9.20;8.40;;;;;;;22.17;80.60;99049.31;5075931;28;39351;-77
2022/07/21 02:48:46;;;;;;;9.17;8.27;;;;;;;22.14;80.48;99051.50;5094111;28;41635;-77
2022/07/21 02:51:14;;;;;;;9.67;8.63;;;;;;;22.10;80.38;99053.69;5092677;28;43472;-76
2022/07/21 02:53:41;;;;;;;8.97;8.10;;;;;;;22.05;80.72;99068.66;5092741;28;43266;-76
2022/07/21 02:56:09;;;;;;;8.70;7.90;;;;;;;22.04;80.66;99069.66;5075921;28;41944;-77
2022/07/21 02:58:37;;;;;;;8.47;7.67;;;;;;;22.03;80.69;99078.75;5093794;28;41732;-77
2022/07/21 03:01:06;;;;;;;8.57;7.67;;;;;;;22.03;80.26;99076.91;5091964;28;43465;-75
2022/07/21 03:03:37;;;;;;;8.57;7.73;;;;;;;22.04;80.08;99075.06;5092333;28;41913;-77
2022/07/21 03:06:05;;;;;;;9.50;8.50;;;;;;;22.00;80.13;99077.25;5092660;28;40055;-77
2022/07/21 03:08:33;;;;;;;9.43;8.63;;;;;;;22.06;79.54;99087.38;5075971;28;41613;-75
2022/07/21 03:11:00;;;;;;;8.80;8.00;;;;;;;22.10;79.71;99101.41;5075261;28;41559;-77
2022/07/21 03:13:28;;;;;;;7.83;7.13;;;;;;;22.07;79.26;99112.50;5093816;28;43304;-77
2022/07/21 03:15:56;;;;;;;9.63;8.63;;;;;;;22.03;79.67;99119.22;5093637;28;40727;-76
2022/07/21 03:18:23;;;;;;;9.47;8.33;;;;;;;21.96;79.65;99108.22;5092429;28;42004;-75
2022/07/21 03:20:53;;;;;;;8.67;7.87;;;;;;;22.00;79.93;99122.28;5092292;28;43726;-76
2022/07/21 03:23:21;;;;;;;8.93;8.03;;;;;;;21.98;80.04;99113.47;5092336;28;41263;-76
2022/07/21 03:25:48;;;;;;;9.20;8.30;;;;;;;21.95;79.76;99109.22;5092202;28;39944;-76
2022/07/21 03:28:17;;;;;;;9.10;8.20;;;;;;;21.88;79.58;99103.63;5092090;28;43536;-77
2022/07/21 03:30:44;;;;;;;8.23;7.43;;;;;;;21.96;79.62;99115.47;5092431;28;43160;-77
2022/07/21 03:33:12;;;;;;;9.20;8.17;;;;;;;21.93;79.04;99126.56;5092043;28;44564;-77
2022/07/21 03:35:40;;;;;;;8.87;8.03;;;;;;;21.91;79.21;99109.69;5092144;28;40860;-77
2022/07/21 03:38:10;;;;;;;8.03;7.23;;;;;;;21.91;78.72;99117.78;5092190;28;40943;-77
2022/07/21 03:40:39;;;;;;;8.97;8.03;;;;;;;21.90;78.53;99121.50;5092092;28;43618;-77
2022/07/21 03:43:08;;;;;;;8.40;7.60;;;;;;;21.90;78.48;99129.56;5092999;28;42267;-77
2022/07/21 03:45:37;;;;;;;7.70;7.00;;;;;;;21.88;78.69;99120.84;5091864;28;40030;-76
2022/07/21 03:48:07;;;;;;;7.87;7.07;;;;;;;21.82;78.50;99112.38;5091928;28;40447;-77
2022/07/21 03:50:36;;;;;;;8.70;8.00;;;;;;;21.88;78.40;99139.72;5091872;28;43218;-78
2022/07/21 03:53:05;;;;;;;8.83;7.93;;;;;;;21.84;78.58;99149.97;5091611;28;43124;-78
2022/07/21 03:55:35;;;;;;;9.87;8.57;;;;;;;21.79;78.92;99141.50;5091982;28;41892;-77
2022/07/21 03:58:05;;;;;;;9.63;8.63;;;;;;;21.63;79.52;99126.09;5092040;28;41972;-76
2022/07/21 04:00:35;;;;;;;9.57;8.67;;;;;;;21.72;78.94;99157.47;5091356;28;42816;-78
2022/07/21 04:03:04;;;;;;;8.73;7.93;;;;;;;21.72;79.11;99154.78;5091684;28;43045;-76
2022/07/21 04:05:32;;;;;;;9.57;8.67;;;;;;;21.71;79.31;99150.41;5091438;28;39415;-78
2022/07/21 04:08:00;;;;;;;8.30;7.47;;;;;;;21.73;79.31;99153.78;5091860;28;41779;-77
2022/07/21 04:10:30;;;;;;;8.53;7.63;;;;;;;21.78;79.28;99148.75;5074716;28;41250;-76
2022/07/21 04:13:01;;;;;;;10.20;9.13;;;;;;;21.81;78.80;99153.81;5092456;28;42343;-76
2022/07/21 04:15:28;;;;;;;10.03;9.03;;;;;;;21.83;78.68;99156.34;5089831;28;40028;-75
2022/07/21 04:17:56;;;;;;;9.90;8.90;;;;;;;21.79;79.06;99163.91;5092410;28;42670;-75
2022/07/21 04:20:25;;;;;;;9.87;8.83;;;;;;;21.82;78.57;99166.28;5091526;28;41638;-77
2022/07/21 04:22:53;;;;;;;10.03;9.07;;;;;;;21.81;78.59;99161.91;5092411;28;42034;-77
2022/07/21 04:25:22;;;;;;;9.73;8.80;;;;;;;21.86;78.65;99164.97;5074890;28;39172;-77
2022/07/21 04:27:50;;;;;;;10.00;9.00;;;;;;;21.95;78.31;99173.94;5092396;28;42851;-74
2022/07/21 04:30:21;;;;;;;11.17;10.07;;;;;;;22.05;77.93;99181.94;5091316;28;43227;-76
2022/07/21 04:32:50;;;;;;;10.80;9.80;;;;;;;22.11;77.50;99184.03;5092082;28;42977;-79
2022/07/21 04:35:18;;;;;;;9.90;8.90;;;;;;;22.14;77.32;99184.53;5074225;28;39101;-74
2022/07/21 04:37:46;;;;;;;12.90;11.47;;;;;;;22.16;77.37;99181.66;5092365;28;41715;-76
2022/07/21 04:40:15;;;;;;;11.47;10.20;;;;;;;22.17;77.12;99178.81;5091181;28;43775;-75
2022/07/21 04:42:43;;;;;;;12.07;10.87;;;;;;;22.19;77.35;99166.00;5073558;28;42573;-76
2022/07/21 04:45:13;;;;;;;12.30;10.63;;;;;;;22.23;76.74;99171.94;5090722;28;42281;-76
2022/07/21 04:47:50;;;;;;;10.57;9.57;;;;;;;22.28;76.97;99174.13;5090252;28;42094;-75
2022/07/21 04:50:19;;;;;;;10.90;9.80;;;;;;;22.29;76.61;99184.75;5089029;28;43813;-74
2022/07/21 04:52:48;;;;;;;10.40;9.40;;;;;;;22.32;76.53;99183.59;5090865;28;42008;-75
2022/07/21 04:55:17;;;;;;;12.70;11.40;;;;;;;22.28;76.63;99180.38;5090906;28;38460;-75
2022/07/21 04:57:47;;;;;;;11.60;10.43;;;;;;;22.32;76.38;99181.75;5090959;28;41705;-75
2022/07/21 05:00:17;;;;;;;10.87;9.77;;;;;;;22.35;76.63;99181.44;5073816;28;41854;-74
2022/07/21 05:02:48;;;;;;;10.30;9.17;;;;;;;22.40;76.17;99189.03;5091360;28;42208;-75
2022/07/21 05:05:16;;;;;;;10.43;9.37;;;;;;;22.38;75.71;99178.38;5090755;28;39046;-77
2022/07/21 05:07:44;;;;;;;10.97;9.97;;;;;;;22.48;76.09;99195.31;5091747;28;42768;-75
2022/07/21 05:10:15;;;;;;;10.93;9.83;;;;;;;22.47;75.69;99196.31;5073708;28;42788;-77
2022/07/21 05:12:43;;;;;;;11.57;10.47;;;;;;;22.47;75.95;99192.78;5090188;28;43008;-77
2022/07/21 05:15:12;;;;;;;11.13;10.03;;;;;;;22.48;75.81;99194.47;5073812;28;42381;-77
2022/07/21 05:17:41;;;;;;;9.77;8.87;;;;;;;22.51;75.94;99203.06;5090475;28;41796;-75
2022/07/21 05:20:12;;;;;;;10.27;9.37;;;;;;;22.57;75.87;99204.28;5073825;28;41574;-78
2022/07/21 05:22:40;;;;;;;11.80;10.80;;;;;;;22.60;75.62;99200.41;5073749;28;41089;-75
2022/07/21 05:25:09;;;;;;;11.37;10.17;;;;;;;22.61;75.37;99202.09;5091648;28;40105;-74
2022/07/21 05:27:37;;;;;;;11.03;9.97;;;;;;;22.69;74.96;99204.81;5091696;28;41809;-76
2022/07/21 05:30:06;;;;;;;11.00;9.90;;;;;;;22.72;74.84;99204.50;5073408;28;42035;-76
2022/07/21 05:32:34;;;;;;;11.17;9.87;;;;;;;22.84;74.97;99203.22;5089916;28;41489;-75
2022/07/21 05:35:01;;;;;;;10.80;9.70;;;;;;;22.91;74.51;99198.81;5090530;28;40999;-77
2022/07/21 05:37:31;;;;;;;10.20;9.30;;;;;;;22.94;74.09;99203.91;5090137;28;42705;-76
2022/07/21 05:39:58;;;;;;;10.60;9.50;;;;;;;23.01;74.48;99215.72;5091268;28;42806;-74
2022/07/21 05:42:26;;;;;;;12.60;11.40;;;;;;;23.10;74.15;99213.91;5073089;28;41177;-74
2022/07/21 05:44:55;;;;;;;11.23;10.13;;;;;;;23.24;73.64;99211.34;5073297;28;40096;-75
2022/07/21 05:47:22;;;;;;;10.47;9.43;;;;;;;23.49;73.63;99214.91;5091186;28;42550;-73
2022/07/21 05:49:50;;;;;;;10.07;9.17;;;;;;;23.70;72.72;99211.75;5091378;28;43779;-73
2022/07/21 05:52:18;;;;;;;10.43;9.33;;;;;;;23.81;72.01;99215.94;5090667;28;42332;-76
2022/07/21 05:54:47;;;;;;;10.17;9.17;;;;;;;23.87;71.88;99205.28;5089976;28;41082;-75
2022/07/21 05:57:14;;;;;;;9.73;8.83;;;;;;;24.10;71.14;99221.66;5072430;28;40909;-77
2022/07/21 05:59:42;;;;;;;10.00;9.00;;;;;;;24.33;69.54;99229.91;5090160;28;43733;-76
2022/07/21 06:02:10;;;;;;;9.27;8.47;;;;;;;24.60;68.92;99237.56;5089277;28;41195;-76
2022/07/21 06:04:38;;;;;;;8.17;7.47;;;;;;;24.84;67.94;99243.91;5091323;28;40078;-78
2022/07/21 06:07:05;;;;;;;9.30;8.50;;;;;;;24.91;67.31;99250.28;5072861;28;41156;-75
2022/07/21 06:09:33;;;;;;;8.37;7.63;;;;;;;24.92;66.51;99251.97;5094683;28;42454;-77
2022/07/21 06:12:03;;;;;;;7.77;7.07;;;;;;;25.01;65.96;99250.94;5094177;28;42243;-75
2022/07/21 06:14:31;;;;;;;8.63;7.83;;;;;;;25.22;66.52;99263.88;5093370;28;40828;-76
2022/07/21 06:16:59;;;;;;;8.43;7.73;;;;;;;25.30;65.15;99261.09;5076765;28;41734;-75
2022/07/21 06:19:27;;;;;;;9.07;7.37;;;;;;;25.36;64.73;99272.03;5094477;28;42813;-76
2022/07/21 06:21:54;;;;;;;8.03;7.30;;;;;;;25.35;64.07;99272.22;5093828;28;43294;-75
2022/07/21 06:24:22;;;;;;;7.40;6.47;;;;;;;25.34;64.41;99268.69;5093190;28;41026;-76
2022/07/21 06:26:50;;;;;;;8.43;7.73;;;;;;;25.43;64.62;99269.47;5092922;28;42696;-74
2022/07/21 06:29:19;;;;;;;8.43;7.63;;;;;;;25.51;64.54;99266.69;5093157;28;44333;-76
2022/07/21 06:31:47;;;;;;;8.87;7.37;;;;;;;25.50;62.99;99272.28;5092642;28;43501;-76
2022/07/21 06:34:15;;;;;;;7.23;6.63;;;;;;;25.46;62.97;99274.53;5093003;28;39797;-75
2022/07/21 06:36:43;;;;;;;7.13;6.53;;;;;;;25.46;63.24;99282.69;5092683;28;41003;-77
2022/07/21 06:39:12;;;;;;;7.27;6.57;;;;;;;25.54;62.28;99289.91;5075874;28;41800;-77
2022/07/21 06:41:40;;;;;;;6.97;6.27;;;;;;;25.59;61.51;99301.06;5093934;28;42330;-74
2022/07/21 06:44:13;;;;;;;7.57;6.37;;;;;;;25.50;61.51;99283.13;5090005;28;41122;-77
2022/07/21 06:46:43;;;;;;;6.77;6.23;;;;;;;25.44;61.82;99289.31;5092370;28;40642;-76
2022/07/21 06:49:11;;;;;;;7.33;6.70;;;;;;;25.37;62.36;99290.00;5092700;28;42849;-76
2022/07/21 06:51:39;;;;;;;6.50;5.90;;;;;;;25.44;61.46;99289.31;5092573;28;42317;-75
2022/07/21 06:54:07;;;;;;;6.87;6.13;;;;;;;25.50;60.78;99291.28;5094026;28;41230;-76
2022/07/21 06:56:34;;;;;;;5.90;5.30;;;;;;;25.62;60.38;99289.88;5094083;28;41530;-75
2022/07/21 06:59:02;;;;;;;6.33;5.73;;;;;;;25.68;59.17;99279.16;5092640;28;42829;-76
2022/07/21 07:01:30;;;;;;;6.07;5.57;;;;;;;26.08;59.04;99310.53;5092076;28;42436;-77
2022/07/21 07:03:59;;;;;;;5.60;5.13;;;;;;;26.27;57.81;99303.69;5075802;28;39142;-75
2022/07/21 07:06:27;;;;;;;6.90;5.80;;;;;;;26.42;57.44;99301.03;5075036;28;40790;-78
2022/07/21 07:08:55;;;;;;;5.90;5.40;;;;;;;26.46;57.16;99296.91;5092549;28;43122;-79
2022/07/21 07:11:23;;;;;;;6.60;6.00;;;;;;;26.66;56.69;99300.75;5092165;28;43271;-77
2022/07/21 07:13:50;;;;;;;7.67;6.30;;;;;;;27.10;55.59;99316.19;5092377;28;39808;-76
2022/07/21 07:16:18;;;;;;;6.70;5.80;;;;;;;27.42;54.65;99323.06;5093244;28;41429;-74
2022/07/21 07:18:46;;;;;;;6.50;5.87;;;;;;;27.80;53.71;99327.28;5075146;28;41539;-75
2022/07/21 07:21:15;;;;;;;6.00;5.50;;;;;;;28.07;53.53;99322.88;5092341;28;41296;-74
2022/07/21 07:23:43;;;;;;;6.80;6.10;;;;;;;28.38;52.73;99333.44;5075492;28;38998;-76
2022/07/21 07:26:11;;;;;;;6.87;6.30;;;;;;;28.54;52.16;99332.31;5092185;28;42394;-77
2022/07/21 07:28:39;;;;;;;6.47;5.87;;;;;;;29.05;50.09;99340.19;5075204;28;41705;-75
2022/07/21 07:31:07;;;;;;;6.30;5.80;;;;;;;29.21;49.20;99350.72;5092236;28;42166;-75
2022/07/21 07:33:34;;;;;;;5.97;5.47;;;;;;;29.67;48.27;99338.09;5075578;28;38955;-77
2022/07/21 07:36:02;;;;;;;5.13;4.63;;;;;;;29.94;47.40;99351.78;5091772;28;41993;-76
2022/07/21 07:38:32;;;;;;;5.30;4.80;;;;;;;30.26;46.19;99351.00;5093355;28;43709;-76
2022/07/21 07:40:59;;;;;;;5.33;4.93;;;;;;;30.82;44.18;99328.66;5074946;28;41627;-76
2022/07/21 07:43:27;;;;;;;4.87;4.50;;;;;;;31.62;43.39;99368.38;5092220;28;39916;-75
2022/07/21 07:45:55;;;;;;;5.53;5.10;;;;;;;31.94;42.58;99332.78;5092029;28;41884;-77
2022/07/21 07:48:22;;;;;;;5.40;5.00;;;;;;;32.42;41.11;99369.53;5075397;28;42952;-77
2022/07/21 07:50:50;;;;;;;5.40;4.90;;;;;;;33.09;40.12;99381.56;5091736;28;41207;-77
2022/07/21 07:53:18;;;;;;;5.40;4.90;;;;;;;33.88;39.00;99380.56;5075141;28;39500;-77
2022/07/21 07:55:47;;;;;;;5.70;5.20;;;;;;;34.21;37.39;99395.72;5093135;28;41810;-78
2022/07/21 07:58:16;;;;;;;5.13;4.73;;;;;;;34.11;37.43;99393.56;5091679;28;42639;-76
2022/07/21 08:00:43;;;;;;;5.93;5.43;;;;;;;34.06;37.37;99389.81;5091389;28;42217;-76
2022/07/21 08:03:11;;;;;;;6.10;5.60;;;;;;;33.39;38.29;99389.88;5074733;28;39920;-77
2022/07/21 08:05:39;;;;;;;4.83;4.43;;;;;;;32.59;38.96;99386.25;5091404;28;40737;-77
2022/07/21 08:08:06;;;;;;;5.83;5.33;;;;;;;31.91;40.23;99377.06;5091456;28;42700;-77
2022/07/21 08:10:35;;;;;;;5.63;5.10;;;;;;;31.38;41.46;99375.44;5093208;28;42344;-75
2022/07/21 08:13:04;;;;;;;5.57;4.73;;;;;;;30.94;41.77;99370.72;5091276;28;38967;-75
2022/07/21 08:15:32;;;;;;;6.90;4.93;;;;;;;31.03;41.32;99371.34;5091381;28;41640;-75
2022/07/21 08:18:00;;;;;;;5.27;4.77;;;;;;;31.46;40.51;99371.59;5092540;28;42913;-77
2022/07/21 08:20:28;;;;;;;5.53;4.87;;;;;;;31.15;40.16;99377.00;5074371;28;44028;-77
2022/07/21 08:22:55;;;;;;;5.70;5.10;;;;;;;32.30;38.83;99387.75;5090969;28;39092;-77
2022/07/21 08:25:23;;;;;;;6.37;5.80;;;;;;;33.87;36.07;99395.41;5091218;28;42445;-76
2022/07/21 08:27:51;;;;;;;5.10;4.70;;;;;;;34.62;34.71;99400.34;5091008;28;42761;-76
2022/07/21 08:30:20;;;;;;;5.30;4.90;;;;;;;34.67;34.67;99416.97;5090853;28;42748;-75
2022/07/21 08:32:48;;;;;;;5.67;5.17;;;;;;;34.07;34.29;99406.09;5091890;28;39936;-76
2022/07/21 08:35:16;;;;;;;5.30;4.80;;;;;;;33.56;36.01;99411.22;5090988;28;42804;-76
2022/07/21 08:37:53;;;;;;;5.00;4.60;;;;;;;32.98;36.81;99384.22;5090886;28;43518;-77
2022/07/21 08:40:24;;;;;;;5.27;4.83;;;;;;;32.53;37.92;99391.78;5088239;28;42354;-76
2022/07/21 08:42:53;;;;;;;5.73;5.27;;;;;;;32.41;37.80;99362.34;5073965;28;38615;-77
2022/07/21 08:45:23;;;;;;;5.50;5.00;;;;;;;32.56;37.67;99378.47;5091177;28;42696;-76
2022/07/21 08:47:53;;;;;;;5.90;5.40;;;;;;;32.93;37.19;99395.88;5090482;28;45810;-76
2022/07/21 08:50:21;;;;;;;5.10;4.70;;;;;;;33.92;36.22;99389.19;5073626;28;43295;-76
2022/07/21 08:52:49;;;;;;;5.57;5.07;;;;;;;35.36;33.67;99400.72;5091798;28;40911;-76
2022/07/21 08:55:17;;;;;;;5.30;4.90;;;;;;;35.40;33.46;99407.41;5074176;28;40533;-76
2022/07/21 08:57:45;;;;;;;5.60;5.10;;;;;;;35.79;33.59;99412.09;5073556;28;43668;-76
2022/07/21 09:00:13;;;;;;;5.20;4.70;;;;;;;35.61;33.68;99401.22;5074112;28;41291;-76
2022/07/21 09:02:42;;;;;;;5.03;4.53;;;;;;;34.90;34.08;99400.50;5074091;28;39237;-75
2022/07/21 09:05:11;;;;;;;5.27;4.87;;;;;;;34.25;35.07;99377.66;5091768;28;42862;-76
2022/07/21 09:07:50;;;;;;;5.03;4.63;;;;;;;33.42;36.45;99363.84;5090264;28;43434;-75
2022/07/21 09:10:23;;;;;;;5.53;5.03;;;;;;;32.75;37.21;99379.41;5090740;28;42171;-75
2022/07/21 09:12:53;;;;;;;5.03;4.63;;;;;;;32.73;37.35;99359.56;5073442;28;40194;-76
2022/07/21 09:15:23;;;;;;;4.43;4.00;;;;;;;32.83;36.65;99370.84;5091749;28;41626;-79
2022/07/21 09:18:08;;;;;;;4.30;4.00;;;;;;;33.24;35.20;99378.47;5091019;28;43078;-78
2022/07/21 09:20:36;;;;;;;4.03;3.63;;;;;;;33.44;34.17;99383.69;5090712;28;41544;-78
2022/07/21 09:23:06;;;;;;;4.40;4.10;;;;;;;33.10;35.18;99379.66;5090322;28;38808;-78
2022/07/21 09:25:37;;;;;;;3.97;3.67;;;;;;;33.23;34.59;99375.91;5090928;28;41694;-76
2022/07/21 09:28:09;;;;;;;4.13;3.83;;;;;;;33.87;34.47;99384.41;5091819;28;43304;-76
2022/07/21 09:30:49;;;;;;;4.50;4.10;;;;;;;34.44;32.79;99401.28;5092391;28;43222;-79
2022/07/21 09:33:23;;;;;;;4.77;4.37;;;;;;;34.29;33.57;99389.06;5073896;28;40266;-76
2022/07/21 09:36:01;;;;;;;4.50;4.10;;;;;;;33.60;34.26;99398.69;5087626;28;42715;-79
2022/07/21 09:38:30;;;;;;;4.40;4.00;;;;;;;32.77;35.56;99377.25;5091073;28;43094;-79
2022/07/21 09:41:06;;;;;;;5.27;4.50;;;;;;;32.15;36.67;99391.88;5090344;28;42256;-80
2022/07/21 09:43:41;;;;;;;5.50;4.73;;;;;;;31.46;37.68;99368.88;5093635;28;39693;-76
2022/07/21 09:46:16;;;;;;;4.40;4.00;;;;;;;31.04;38.96;99371.09;5094317;28;41007;-79
2022/07/21 09:48:47;;;;;;;4.40;4.00;;;;;;;31.13;39.77;99363.53;5091450;28;43604;-77
2022/07/21 09:51:27;;;;;;;4.70;4.37;;;;;;;32.32;38.07;99377.41;5091679;28;43272;-79
2022/07/21 09:53:58;;;;;;;5.23;4.00;;;;;;;33.47;35.67;99383.22;5092565;28;40944;-76
2022/07/21 09:56:28;;;;;;;4.40;4.00;;;;;;;35.00;32.53;99410.91;5077395;28;40808;-74
2022/07/21 09:58:57;;;;;;;4.37;4.07;;;;;;;36.46;30.40;99417.75;5093818;28;45052;-76
2022/07/21 10:01:26;;;;;;;4.30;4.00;;;;;;;37.77;28.99;99418.03;5093367;28;42914;-79
2022/07/21 10:03:58;;;;;;;4.90;4.50;;;;;;;38.28;28.44;99410.28;5096043;28;40968;-76
2022/07/21 10:06:28;;;;;;;4.47;4.03;;;;;;;37.99;28.62;99399.44;5092387;28;42801;-75
2022/07/21 10:08:58;;;;;;;4.07;3.77;;;;;;;37.56;28.95;99407.81;5090751;28;43749;-78
2022/07/21 10:11:27;;;;;;;3.43;3.23;;;;;;;37.18;29.22;99384.66;5077050;28;42048;-77
2022/07/21 10:13:55;;;;;;;4.17;3.87;;;;;;;37.21;29.16;99395.22;5095057;28;41200;-78
2022/07/21 10:16:23;;;;;;;4.57;4.17;;;;;;;37.29;29.56;99386.47;5076878;28;42098;-77
2022/07/21 10:19:12;;;;;;;4.20;3.90;;;;;;;37.32;28.30;99388.72;5094920;28;43760;-77
2022/07/21 10:21:46;;;;;;;3.45;3.15;;;;;;;37.95;27.90;99390.03;5094282;28;43324;-77
2022/07/21 10:24:14;;;;;;;4.10;3.80;;;;;;;38.47;26.39;99381.09;5090562;28;40015;-75
2022/07/21 10:27:00;;;;;;;3.85;3.55;;;;;;;39.00;25.02;99407.00;5095046;28;41733;-77
2022/07/21 10:29:55;;;;;;;3.90;3.60;;;;;;;39.36;25.51;99395.00;5076826;28;42591;-77
2022/07/21 10:32:26;;;;;;;4.45;4.07;;;;;;;39.75;25.11;99402.94;5075772;28;42367;-77
2022/07/21 10:34:55;;;;;;;3.67;3.40;;;;;;;39.52;24.72;99386.78;5076682;28;40077;-75
2022/07/21 10:37:53;;;;;;;3.95;3.65;;;;;;;38.56;26.10;99379.56;5094107;28;41580;-79
2022/07/21 10:40:42;;;;;;;4.10;3.80;;;;;;;38.45;25.51;99372.25;4999435;28;43441;-76
2022/07/21 10:43:42;;;;;;;3.50;3.20;;;;;;;39.26;25.78;99375.56;5086460;28;43306;-79
2022/07/21 10:46:45;;;;;;;2.65;2.45;;;;;;;39.50;24.52;99385.13;5094299;28;39840;-79
2022/07/21 10:49:44;;;;;;;3.25;3.05;;;;;;;39.18;25.11;99386.34;5089876;28;43584;-80
2022/07/21 10:52:49;;;;;;;3.35;3.05;;;;;;;38.77;26.08;99375.81;5091550;28;42707;-78
2022/07/21 10:55:26;;;;;;;3.60;3.30;;;;;;;38.25;26.78;99372.91;5093259;28;42350;-77
2022/07/21 10:58:19;;;;;;;3.25;3.05;;;;;;;38.36;26.55;99368.28;5092599;28;40143;-77
2022/07/21 11:00:49;;;;;;;3.35;3.10;;;;;;;38.71;25.44;99387.13;5091271;28;41857;-74
2022/07/21 11:03:25;;;;;;;2.47;2.28;;;;;;;38.53;24.99;99373.69;5089923;28;42972;-73
2022/07/21 11:06:17;;;;;;;2.97;2.78;;;;;;;38.74;24.92;99379.13;5075570;28;41245;-73
2022/07/21 11:08:46;;;;;;;2.65;2.45;;;;;;;39.01;24.50;99376.28;5092176;28;40573;-74
2022/07/21 11:11:17;;;;;;;2.70;2.50;;;;;;;39.25;24.18;99373.88;5093805;28;41836;-75
2022/07/21 11:14:07;;;;;;;2.50;2.33;;;;;;;39.43;23.49;99373.47;5075456;28;43015;-77
2022/07/21 11:17:11;;;;;;;2.38;2.28;;;;;;;38.94;23.99;99369.28;5092820;28;41984;-77
2022/07/21 11:19:42;;;;;;;3.08;2.78;;;;;;;38.42;24.71;99361.69;5076076;28;38769;-76
2022/07/21 11:22:13;;;;;;;2.45;2.25;;;;;;;37.86;25.21;99355.63;5092384;28;41741;-79
2022/07/21 11:24:48;;;;;;;3.08;2.60;;;;;;;37.49;25.79;99352.72;5075961;28;42993;-74
2022/07/21 11:27:19;;;;;;;3.33;3.13;;;;;;;37.73;27.07;99339.44;5091906;28;43222;-74
2022/07/21 11:29:49;;;;;;;3.50;3.20;;;;;;;37.86;27.91;99327.97;5092848;28;41087;-76
2022/07/21 11:32:18;;;;;;;3.20;3.00;;;;;;;37.48;26.04;99345.50;5092228;28;44179;-74
2022/07/21 11:34:48;;;;;;;3.50;2.93;;;;;;;37.11;26.65;99339.78;5092393;28;43360;-74
2022/07/21 11:37:18;;;;;;;2.83;2.63;;;;;;;37.35;26.44;99335.69;5092378;28;43255;-76
2022/07/21 11:39:46;;;;;;;3.33;2.63;;;;;;;38.24;25.73;99337.19;5093734;28;40982;-73
2022/07/21 11:42:15;;;;;;;3.05;2.85;;;;;;;38.17;25.56;99340.19;5092291;28;43560;-73
2022/07/21 11:44:45;;;;;;;2.90;2.70;;;;;;;37.97;25.35;99332.50;5092350;28;42549;-77
2022/07/21 11:47:16;;;;;;;3.17;2.90;;;;;;;38.14;25.82;99328.81;5075413;28;41068;-77